Time;durP1;ratioP1;P1;durP2;ratioP2;P2;SDS_P1;SDS_P2;PMS_P1;PMS_P2;Temp;Humidity;BMP_temperature;BMP_pressure;BME280_temperature;BME280_humidity;BME280_pressure;Samples;Min_cycle;Max_cycle;Signal;HPM_P1;HPM_P2
2023/05/06 00:00:13;;;;;;;10.73;3.20;;;13.50;99.90;;;;;;5115398;28;20445;-62
2023/05/06 00:02:41;;;;;;;11.50;3.05;;;13.50;99.90;;;;;;5099255;28;20044;-61
2023/05/06 00:05:08;;;;;;;14.32;3.13;;;13.50;99.90;;;;;;5078137;28;20094;-61
2023/05/06 00:07:35;;;;;;;15.45;2.90;;;13.40;99.90;;;;;;5095842;28;20097;-61
2023/05/06 00:10:03;;;;;;;12.48;2.67;;;13.40;99.90;;;;;;5095757;28;20036;-61
2023/05/06 00:12:30;;;;;;;11.95;2.95;;;13.40;99.90;;;;;;5095358;28;20417;-62
2023/05/06 00:14:57;;;;;;;12.98;3.00;;;13.30;99.90;;;;;;5096014;28;20467;-61
2023/05/06 00:17:23;;;;;;;13.75;2.60;;;13.40;99.90;;;;;;5077549;28;20380;-60
2023/05/06 00:19:51;;;;;;;14.02;3.00;;;13.30;99.90;;;;;;5095687;28;20035;-61
2023/05/06 00:22:18;;;;;;;12.95;3.10;;;13.30;99.90;;;;;;5102721;28;20036;-61
2023/05/06 00:24:44;;;;;;;11.02;2.30;;;13.30;99.90;;;;;;5115143;28;20069;-61
2023/05/06 00:27:11;;;;;;;15.48;3.50;;;13.30;99.90;;;;;;5114995;28;20096;-61
2023/05/06 00:29:38;;;;;;;12.93;2.83;;;13.30;99.90;;;;;;5096980;28;20440;-62
2023/05/06 00:32:05;;;;;;;10.65;2.55;;;13.30;99.90;;;;;;5115197;28;20490;-62
2023/05/06 00:34:31;;;;;;;12.95;3.22;;;13.30;99.90;;;;;;5115025;28;20043;-62
2023/05/06 00:36:58;;;;;;;11.13;2.70;;;13.30;99.90;;;;;;5114974;28;20513;-61
2023/05/06 00:39:25;;;;;;;13.45;2.85;;;13.30;99.90;;;;;;5096774;28;20556;-62
2023/05/06 00:41:52;;;;;;;12.90;2.78;;;13.30;99.90;;;;;;5114840;28;20039;-62
2023/05/06 00:44:19;;;;;;;12.20;3.05;;;13.30;99.90;;;;;;5115112;28;20059;-61
2023/05/06 00:46:45;;;;;;;13.77;2.92;;;13.40;99.90;;;;;;5114599;28;20042;-62
2023/05/06 00:49:12;;;;;;;14.05;2.92;;;13.40;99.90;;;;;;5096570;28;20562;-62
2023/05/06 00:51:39;;;;;;;12.77;2.92;;;13.40;99.90;;;;;;5093572;28;20476;-62
2023/05/06 00:54:06;;;;;;;16.98;3.17;;;13.40;99.90;;;;;;5077042;28;20096;-61
2023/05/06 00:56:32;;;;;;;17.48;3.13;;;13.40;99.90;;;;;;5094593;28;20483;-61
2023/05/06 00:58:59;;;;;;;13.38;3.25;;;13.50;99.90;;;;;;5095214;28;20603;-62
2023/05/06 01:01:26;;;;;;;11.98;3.17;;;13.50;99.90;;;;;;5094810;28;20040;-61
2023/05/06 01:03:55;;;;;;;15.63;3.50;;;13.50;99.90;;;;;;5095153;28;20048;-63
2023/05/06 01:06:23;;;;;;;14.55;2.90;;;13.50;99.90;;;;;;5076684;28;20044;-61
2023/05/06 01:08:50;;;;;;;17.70;3.42;;;13.50;99.90;;;;;;5060054;28;20445;-61
2023/05/06 01:11:17;;;;;;;12.70;2.80;;;13.50;99.90;;;;;;5076524;28;20374;-62
2023/05/06 01:13:44;;;;;;;9.98;2.70;;;13.50;99.90;;;;;;5094512;28;20076;-62
2023/05/06 01:16:10;;;;;;;11.02;3.10;;;13.50;99.90;;;;;;5094475;28;20036;-62
2023/05/06 01:18:37;;;;;;;14.05;2.92;;;13.50;99.90;;;;;;5094729;28;20491;-61
2023/05/06 01:21:04;;;;;;;12.30;2.72;;;13.60;99.90;;;;;;5076208;28;20372;-61
2023/05/06 01:23:31;;;;;;;14.70;3.92;;;13.60;99.90;;;;;;5076277;28;20094;-61
2023/05/06 01:25:57;;;;;;;17.15;3.60;;;13.60;99.90;;;;;;5094287;28;20075;-62
2023/05/06 01:28:24;;;;;;;14.93;3.30;;;13.60;99.90;;;;;;5094158;28;20040;-64
2023/05/06 01:30:51;;;;;;;15.02;3.47;;;13.60;99.90;;;;;;5086443;28;20449;-61
2023/05/06 01:33:18;;;;;;;14.13;3.00;;;13.60;99.90;;;;;;5087608;28;20043;-62
2023/05/06 01:35:45;;;;;;;12.75;3.40;;;13.70;99.90;;;;;;5069250;28;20036;-61
2023/05/06 01:38:12;;;;;;;14.70;3.20;;;13.60;99.90;;;;;;5087255;28;20093;-62
2023/05/06 01:40:38;;;;;;;16.95;3.55;;;13.60;99.90;;;;;;5095381;28;20134;-62
2023/05/06 01:43:05;;;;;;;12.02;3.20;;;13.70;99.90;;;;;;5095200;28;20035;-62
2023/05/06 01:45:32;;;;;;;14.93;3.85;;;13.70;99.90;;;;;;5113663;28;20490;-61
2023/05/06 01:47:59;;;;;;;15.20;3.63;;;13.70;99.90;;;;;;5113638;28;20119;-62
2023/05/06 01:50:26;;;;;;;14.30;3.42;;;13.70;99.90;;;;;;5113404;28;20114;-63
2023/05/06 01:52:53;;;;;;;15.07;3.70;;;13.70;99.90;;;;;;5082611;28;20032;-62
2023/05/06 01:55:20;;;;;;;14.60;3.38;;;13.70;99.90;;;;;;5088899;28;20046;-63
2023/05/06 01:57:46;;;;;;;12.75;3.10;;;13.70;99.90;;;;;;5113627;28;20067;-61
2023/05/06 02:00:13;;;;;;;15.10;3.65;;;13.70;99.90;;;;;;5113420;28;20035;-61
2023/05/06 02:02:40;;;;;;;13.27;2.92;;;13.70;99.90;;;;;;5113545;28;20044;-63
2023/05/06 02:05:07;;;;;;;16.20;3.63;;;13.70;99.90;;;;;;5113436;28;20047;-62
2023/05/06 02:07:39;;;;;;;18.65;4.07;;;13.60;99.90;;;;;;5095007;28;20046;-65
2023/05/06 02:10:07;;;;;;;13.73;3.80;;;13.60;99.90;;;;;;5094750;28;20044;-61
2023/05/06 02:12:37;;;;;;;13.68;3.80;;;13.50;99.90;;;;;;5085960;28;20131;-61
2023/05/06 02:15:04;;;;;;;18.73;4.30;;;13.50;99.90;;;;;;5075611;28;20040;-63
2023/05/06 02:17:30;;;;;;;15.07;3.47;;;13.50;99.90;;;;;;5093665;28;20048;-63
2023/05/06 02:19:57;;;;;;;15.90;3.90;;;13.40;99.90;;;;;;5086944;28;20044;-62
2023/05/06 02:22:24;;;;;;;21.08;4.20;;;13.40;99.90;;;;;;5087101;28;20040;-63
2023/05/06 02:24:51;;;;;;;10.02;3.58;;;13.30;99.90;;;;;;5068546;28;20494;-63
2023/05/06 02:27:18;;;;;;;16.63;4.22;;;13.30;99.90;;;;;;5068603;28;20043;-62
2023/05/06 02:29:45;;;;;;;17.08;3.90;;;13.30;99.90;;;;;;5082375;28;20036;-62
2023/05/06 02:32:12;;;;;;;20.05;4.47;;;13.20;99.90;;;;;;5112802;28;20067;-62
2023/05/06 02:34:40;;;;;;;17.35;4.88;;;13.20;99.90;;;;;;5113344;28;20109;-60
2023/05/06 02:37:07;;;;;;;14.65;4.03;;;13.10;99.90;;;;;;5094622;28;20036;-62
2023/05/06 02:39:33;;;;;;;19.35;4.07;;;13.10;99.90;;;;;;5094677;28;20433;-62
2023/05/06 02:42:01;;;;;;;18.73;4.85;;;13.10;99.90;;;;;;5112904;28;20043;-63
2023/05/06 02:44:28;;;;;;;14.75;3.97;;;13.00;99.90;;;;;;5094672;28;20046;-62
2023/05/06 02:46:57;;;;;;;17.35;4.85;;;13.00;99.90;;;;;;5095172;28;20096;-61
2023/05/06 02:49:24;;;;;;;19.23;4.35;;;12.90;99.90;;;;;;5112880;28;20387;-63
2023/05/06 02:51:51;;;;;;;16.13;4.50;;;12.90;99.90;;;;;;5112766;28;20122;-63
2023/05/06 02:54:17;;;;;;;18.95;3.97;;;12.90;99.90;;;;;;5106044;28;20054;-61
2023/05/06 02:56:45;;;;;;;20.80;4.47;;;12.90;99.90;;;;;;5093305;28;20111;-61
2023/05/06 02:59:12;;;;;;;21.30;5.15;;;12.80;99.90;;;;;;5093225;28;20140;-63
2023/05/06 03:01:38;;;;;;;15.10;4.43;;;12.80;99.90;;;;;;5093396;28;20345;-62
2023/05/06 03:04:05;;;;;;;15.23;4.60;;;12.80;99.90;;;;;;5075083;28;20040;-62
2023/05/06 03:06:32;;;;;;;18.80;4.13;;;12.80;99.90;;;;;;5093297;28;20483;-61
2023/05/06 03:08:59;;;;;;;16.42;4.78;;;12.70;99.90;;;;;;5093189;28;20040;-63
2023/05/06 03:11:30;;;;;;;18.50;4.30;;;12.70;99.90;;;;;;5092989;28;20119;-61
2023/05/06 03:14:01;;;;;;;21.00;4.90;;;12.70;99.90;;;;;;5075462;28;20040;-62
2023/05/06 03:16:28;;;;;;;18.00;5.15;;;12.60;99.90;;;;;;5075083;28;20055;-62
2023/05/06 03:18:58;;;;;;;20.73;4.60;;;12.60;99.90;;;;;;5093718;28;20118;-62
2023/05/06 03:21:25;;;;;;;14.07;4.63;;;12.50;99.90;;;;;;5097687;28;20048;-60
2023/05/06 03:23:52;;;;;;;16.88;4.65;;;12.50;99.90;;;;;;5095739;28;20032;-62
2023/05/06 03:26:22;;;;;;;15.10;4.70;;;12.50;99.90;;;;;;5078506;28;20040;-61
2023/05/06 03:28:49;;;;;;;15.00;4.50;;;12.50;99.90;;;;;;5078583;28;20471;-61
2023/05/06 03:31:19;;;;;;;15.20;4.35;;;12.40;99.90;;;;;;5078468;28;20491;-61
2023/05/06 03:33:46;;;;;;;17.17;4.68;;;12.40;99.90;;;;;;5078530;28;20044;-62
2023/05/06 03:36:13;;;;;;;22.48;4.60;;;12.40;99.90;;;;;;5078589;28;20064;-60
2023/05/06 03:38:42;;;;;;;14.32;4.35;;;12.40;99.90;;;;;;5078351;28;20044;-63
2023/05/06 03:41:09;;;;;;;14.55;3.90;;;12.40;99.90;;;;;;5096355;28;20071;-62
2023/05/06 03:43:36;;;;;;;16.50;4.38;;;12.40;99.90;;;;;;5078453;28;20044;-62
2023/05/06 03:46:04;;;;;;;14.30;3.80;;;12.30;99.90;;;;;;5096337;28;20051;-62
2023/05/06 03:48:33;;;;;;;15.75;4.25;;;12.30;99.90;;;;;;5081452;28;20040;-62
2023/05/06 03:51:04;;;;;;;15.48;3.92;;;12.30;99.90;;;;;;5097600;28;20032;-61
2023/05/06 03:53:31;;;;;;;11.15;4.40;;;12.30;99.90;;;;;;5092376;28;20427;-61
2023/05/06 03:55:58;;;;;;;14.73;4.10;;;12.30;99.90;;;;;;5071557;28;20040;-63
2023/05/06 03:58:25;;;;;;;13.93;4.07;;;12.40;99.90;;;;;;5089649;28;20101;-62
2023/05/06 04:00:52;;;;;;;16.23;4.20;;;12.40;99.90;;;;;;5071763;28;20043;-62
2023/05/06 04:03:18;;;;;;;16.48;3.95;;;12.40;99.90;;;;;;5089333;28;20390;-61
2023/05/06 04:05:49;;;;;;;16.33;4.15;;;12.40;99.90;;;;;;5071751;28;20380;-62
2023/05/06 04:08:20;;;;;;;16.52;4.43;;;12.40;99.90;;;;;;5077746;28;20130;-62
2023/05/06 04:10:47;;;;;;;14.05;3.65;;;12.40;99.90;;;;;;5077616;28;20047;-62
2023/05/06 04:13:29;;;;;;;16.30;4.10;;;12.40;99.90;;;;;;5077702;28;20047;-62
2023/05/06 04:15:58;;;;;;;13.48;4.25;;;12.40;99.90;;;;;;5078007;28;20138;-61
2023/05/06 04:18:33;;;;;;;17.73;3.95;;;12.40;99.90;;;;;;5077646;28;20044;-61
2023/05/06 04:21:05;;;;;;;18.85;3.95;;;12.40;99.90;;;;;;5077716;28;20040;-62
2023/05/06 04:23:35;;;;;;;14.30;4.28;;;12.40;99.90;;;;;;5076921;28;20347;-62
2023/05/06 04:26:03;;;;;;;20.92;4.70;;;12.40;99.90;;;;;;5077690;28;20068;-62
2023/05/06 04:28:31;;;;;;;13.38;3.92;;;12.40;99.90;;;;;;5076343;28;20059;-62
2023/05/06 04:30:58;;;;;;;16.67;4.32;;;12.40;99.90;;;;;;5094749;28;20106;-63
2023/05/06 04:33:34;;;;;;;16.55;4.30;;;12.40;99.90;;;;;;5077232;28;20047;-61
2023/05/06 04:36:05;;;;;;;14.00;4.30;;;12.40;99.90;;;;;;5090572;28;20059;-61
2023/05/06 04:38:36;;;;;;;15.20;3.85;;;12.40;99.90;;;;;;5087997;28;20040;-62
2023/05/06 04:41:04;;;;;;;13.80;4.10;;;12.50;99.90;;;;;;5077072;28;20070;-62
2023/05/06 04:43:32;;;;;;;19.60;4.15;;;12.50;99.90;;;;;;5060873;28;20040;-64
2023/05/06 04:46:07;;;;;;;18.13;4.05;;;12.50;99.90;;;;;;5077223;28;20375;-61
2023/05/06 04:48:36;;;;;;;12.35;3.55;;;12.50;99.90;;;;;;5077222;28;20070;-63
2023/05/06 04:51:04;;;;;;;19.15;4.18;;;12.50;99.90;;;;;;5060721;28;20044;-61
2023/05/06 04:53:32;;;;;;;14.43;3.70;;;12.50;99.90;;;;;;5077061;28;20044;-62
2023/05/06 04:55:59;;;;;;;16.85;3.95;;;12.50;99.90;;;;;;5095143;28;20093;-60
2023/05/06 04:58:26;;;;;;;13.60;3.78;;;12.50;99.90;;;;;;5094998;28;20499;-62
2023/05/06 05:00:55;;;;;;;16.90;4.30;;;12.60;99.90;;;;;;5094973;28;20068;-61
2023/05/06 05:03:22;;;;;;;13.32;3.65;;;12.60;99.90;;;;;;5076703;28;20135;-62
2023/05/06 05:05:51;;;;;;;16.42;3.80;;;12.60;99.90;;;;;;5076809;28;20506;-62
2023/05/06 05:08:18;;;;;;;15.15;4.13;;;12.70;99.90;;;;;;5095082;28;20074;-63
2023/05/06 05:10:45;;;;;;;15.85;4.47;;;12.70;99.90;;;;;;5094573;28;20458;-61
2023/05/06 05:13:16;;;;;;;16.77;4.22;;;12.80;99.90;;;;;;5073185;28;20098;-62
2023/05/06 05:15:44;;;;;;;14.52;3.80;;;12.80;99.90;;;;;;5073451;28;20519;-62
2023/05/06 05:18:13;;;;;;;15.15;3.72;;;12.80;99.90;;;;;;5073163;28;20072;-62
2023/05/06 05:20:41;;;;;;;17.08;3.95;;;12.90;99.90;;;;;;5073267;28;20045;-62
2023/05/06 05:23:11;;;;;;;13.13;3.75;;;12.90;99.90;;;;;;5072950;28;20067;-61
2023/05/06 05:25:37;;;;;;;22.40;4.20;;;12.90;99.90;;;;;;5072999;28;20052;-62
2023/05/06 05:28:04;;;;;;;15.55;3.83;;;13.00;99.90;;;;;;5072845;28;20067;-62
2023/05/06 05:30:33;;;;;;;15.15;3.75;;;13.00;99.90;;;;;;5073037;28;20379;-62
2023/05/06 05:33:00;;;;;;;16.25;4.47;;;13.10;99.90;;;;;;5072983;28;20033;-62
2023/05/06 05:35:27;;;;;;;20.83;4.05;;;13.10;99.90;;;;;;5072977;28;20052;-61
2023/05/06 05:37:54;;;;;;;14.93;4.00;;;13.20;99.90;;;;;;5072870;28;20056;-62
2023/05/06 05:40:21;;;;;;;13.65;3.40;;;13.20;99.90;;;;;;5072715;28;20553;-62
2023/05/06 05:42:51;;;;;;;19.17;3.55;;;13.30;99.90;;;;;;5071879;28;20044;-62
2023/05/06 05:45:27;;;;;;;12.75;3.50;;;13.40;99.90;;;;;;5072948;28;20479;-62
2023/05/06 05:47:54;;;;;;;14.75;3.50;;;13.50;99.90;;;;;;5072503;28;20403;-61
2023/05/06 05:50:22;;;;;;;10.18;3.60;;;13.50;99.90;;;;;;5072536;28;20098;-62
2023/05/06 05:52:50;;;;;;;14.52;3.97;;;13.60;99.90;;;;;;5073870;28;20044;-63
2023/05/06 05:55:17;;;;;;;11.77;2.80;;;13.60;99.90;;;;;;5072712;28;20123;-62
2023/05/06 05:57:46;;;;;;;12.60;3.40;;;13.70;99.90;;;;;;5072544;28;20040;-62
2023/05/06 06:00:13;;;;;;;17.02;3.63;;;13.70;99.90;;;;;;5072367;28;20048;-63
2023/05/06 06:02:43;;;;;;;15.85;3.70;;;13.70;99.90;;;;;;5073748;28;20049;-61
2023/05/06 06:05:14;;;;;;;14.68;3.55;;;13.80;99.90;;;;;;5072487;28;20048;-62
2023/05/06 06:07:40;;;;;;;12.25;3.35;;;13.80;99.90;;;;;;5072602;28;20471;-61
2023/05/06 06:10:07;;;;;;;14.90;3.70;;;13.90;99.90;;;;;;5073612;28;20040;-61
2023/05/06 06:12:34;;;;;;;12.43;3.45;;;13.90;99.90;;;;;;5072342;28;20048;-63
2023/05/06 06:15:03;;;;;;;16.88;3.60;;;14.00;99.90;;;;;;5072188;28;20442;-61
2023/05/06 06:17:31;;;;;;;11.23;3.50;;;14.10;99.90;;;;;;5072171;28;20500;-63
2023/05/06 06:19:58;;;;;;;11.90;3.13;;;14.20;99.90;;;;;;5071995;28;20040;-62
2023/05/06 06:22:25;;;;;;;15.77;3.35;;;14.30;99.90;;;;;;5072265;28;20051;-60
2023/05/06 06:24:53;;;;;;;14.38;3.38;;;14.40;99.90;;;;;;5071394;28;20040;-61
2023/05/06 06:27:20;;;;;;;13.27;3.40;;;14.50;99.90;;;;;;5072145;28;20127;-61
2023/05/06 06:29:50;;;;;;;11.75;2.97;;;14.60;99.90;;;;;;5073177;28;20071;-61
2023/05/06 06:32:17;;;;;;;11.25;2.83;;;14.70;99.90;;;;;;5071977;28;20139;-61
2023/05/06 06:34:44;;;;;;;8.07;2.63;;;14.80;99.90;;;;;;5073252;28;20051;-62
2023/05/06 06:37:11;;;;;;;11.55;2.75;;;14.80;99.90;;;;;;5073379;28;20047;-61
2023/05/06 06:39:37;;;;;;;11.00;3.40;;;14.80;99.90;;;;;;5073582;28;20376;-61
2023/05/06 06:42:05;;;;;;;12.77;3.40;;;14.80;99.90;;;;;;5073444;28;20040;-60
2023/05/06 06:44:44;;;;;;;10.15;2.90;;;14.90;99.90;;;;;;5072307;28;20064;-60
2023/05/06 06:47:11;;;;;;;13.85;2.80;;;14.90;99.90;;;;;;5073370;28;20055;-62
2023/05/06 06:49:39;;;;;;;14.48;3.88;;;14.90;99.90;;;;;;5073566;28;20107;-61
2023/05/06 06:52:06;;;;;;;12.57;3.45;;;14.90;99.90;;;;;;5073323;28;20123;-62
2023/05/06 06:54:32;;;;;;;11.13;2.95;;;15.00;99.90;;;;;;5074686;28;20037;-60
2023/05/06 06:57:00;;;;;;;12.63;3.17;;;15.00;99.90;;;;;;5077472;28;20036;-60
2023/05/06 06:59:27;;;;;;;12.65;2.95;;;15.10;99.90;;;;;;5093685;28;20123;-60
2023/05/06 07:01:53;;;;;;;11.38;3.03;;;15.10;99.90;;;;;;5096730;28;20406;-60
2023/05/06 07:04:20;;;;;;;11.20;3.75;;;15.10;99.90;;;;;;5096760;28;20129;-61
2023/05/06 07:06:47;;;;;;;12.02;3.28;;;15.20;99.90;;;;;;5081028;28;20522;-60
2023/05/06 07:09:14;;;;;;;15.35;3.65;;;15.30;99.90;;;;;;5075709;28;20094;-60
2023/05/06 07:11:41;;;;;;;11.38;3.45;;;15.30;99.90;;;;;;5092653;28;20047;-61
2023/05/06 07:14:07;;;;;;;13.02;3.85;;;15.40;99.90;;;;;;5116885;28;20042;-61
2023/05/06 07:16:34;;;;;;;12.38;3.38;;;15.50;99.90;;;;;;5116929;28;20031;-61
2023/05/06 07:19:01;;;;;;;11.43;3.33;;;15.60;99.90;;;;;;5115497;28;20088;-59
2023/05/06 07:21:31;;;;;;;12.13;3.53;;;15.60;99.90;;;;;;5116395;28;20104;-62
2023/05/06 07:23:57;;;;;;;16.30;3.50;;;15.70;99.90;;;;;;5108029;28;20040;-60
2023/05/06 07:26:25;;;;;;;13.02;3.50;;;15.80;99.90;;;;;;5096651;28;20044;-61
2023/05/06 07:28:51;;;;;;;11.13;3.20;;;15.80;99.90;;;;;;5095646;28;20040;-60
2023/05/06 07:31:19;;;;;;;11.32;3.15;;;16.00;99.90;;;;;;5096807;28;20075;-61
2023/05/06 07:33:46;;;;;;;13.85;3.60;;;16.10;99.90;;;;;;5096876;28;20111;-61
2023/05/06 07:36:13;;;;;;;13.50;3.60;;;16.20;99.90;;;;;;5096973;28;20044;-60
2023/05/06 07:38:40;;;;;;;11.38;2.80;;;16.30;99.90;;;;;;5096507;28;20119;-62
2023/05/06 07:41:07;;;;;;;10.02;2.88;;;16.40;99.90;;;;;;5096828;28;20490;-62
2023/05/06 07:43:33;;;;;;;13.38;3.33;;;16.50;99.90;;;;;;5096737;28;20043;-62
2023/05/06 07:46:03;;;;;;;15.45;3.55;;;16.60;99.90;;;;;;5096316;28;20043;-61
2023/05/06 07:48:31;;;;;;;10.43;3.13;;;16.70;99.90;;;;;;5096656;28;20063;-60
2023/05/06 07:50:58;;;;;;;11.88;2.78;;;16.80;99.90;;;;;;5096715;28;20433;-60
2023/05/06 07:53:25;;;;;;;9.23;3.00;;;16.80;99.90;;;;;;5098760;28;20044;-62
2023/05/06 07:55:54;;;;;;;9.45;3.05;;;16.80;99.90;;;;;;5097704;28;20442;-62
2023/05/06 07:58:21;;;;;;;10.90;3.35;;;16.80;99.90;;;;;;5097700;28;20043;-61
2023/05/06 08:00:47;;;;;;;10.65;3.13;;;16.90;99.90;;;;;;5096846;28;20576;-61
2023/05/06 08:03:15;;;;;;;13.98;3.08;;;16.90;99.90;;;;;;5096049;28;20109;-62
2023/05/06 08:05:42;;;;;;;12.13;3.42;;;16.90;99.90;;;;;;5095213;28;20086;-62
2023/05/06 08:08:09;;;;;;;11.40;3.22;;;17.00;99.90;;;;;;5095571;28;20040;-60
2023/05/06 08:10:36;;;;;;;11.25;3.25;;;17.10;99.90;;;;;;5077760;28;20449;-62
2023/05/06 08:13:03;;;;;;;12.07;3.60;;;17.20;99.90;;;;;;5095510;28;20056;-61
2023/05/06 08:15:29;;;;;;;11.15;3.30;;;17.20;99.90;;;;;;5095877;28;20071;-60
2023/05/06 08:17:56;;;;;;;10.75;3.25;;;17.30;99.90;;;;;;5077963;28;20119;-61
2023/05/06 08:20:32;;;;;;;11.02;3.40;;;17.30;99.90;;;;;;5095608;28;20043;-62
2023/05/06 08:22:59;;;;;;;14.13;3.58;;;17.30;99.90;;;;;;5095780;28;20399;-60
2023/05/06 08:25:26;;;;;;;14.43;3.60;;;17.30;99.90;;;;;;5095885;28;20036;-60
2023/05/06 08:27:53;;;;;;;13.07;3.67;;;17.30;99.90;;;;;;5095627;28;20044;-62
2023/05/06 08:30:19;;;;;;;14.32;3.72;;;17.30;99.90;;;;;;5094567;28;20043;-64
2023/05/06 08:32:46;;;;;;;10.90;3.30;;;17.10;99.90;;;;;;5095920;28;20036;-62
2023/05/06 08:35:16;;;;;;;13.07;3.97;;;17.10;99.90;;;;;;5078156;28;20111;-62
2023/05/06 08:37:43;;;;;;;12.45;4.45;;;17.00;99.90;;;;;;5077260;28;20437;-62
2023/05/06 08:40:10;;;;;;;14.15;4.55;;;16.90;99.90;;;;;;5095693;28;20036;-61
2023/05/06 08:42:36;;;;;;;15.77;4.75;;;17.00;99.90;;;;;;5095650;28;20048;-61
2023/05/06 08:45:03;;;;;;;11.45;4.43;;;17.00;99.90;;;;;;5095328;28;20467;-62
2023/05/06 08:47:30;;;;;;;12.63;4.75;;;17.00;99.90;;;;;;5095204;28;20071;-61
2023/05/06 08:49:57;;;;;;;13.20;4.15;;;17.00;99.90;;;;;;5095396;28;20074;-61
2023/05/06 08:52:24;;;;;;;11.93;4.32;;;16.90;99.90;;;;;;5095252;28;20044;-61
2023/05/06 08:54:53;;;;;;;10.95;3.53;;;16.90;99.90;;;;;;5095201;28;20040;-61
2023/05/06 08:57:20;;;;;;;7.38;3.50;;;16.90;99.90;;;;;;5095170;28;20041;-62
2023/05/06 08:59:47;;;;;;;7.90;3.28;;;16.70;99.90;;;;;;5094148;28;20052;-60
2023/05/06 09:02:13;;;;;;;10.20;3.67;;;16.70;99.90;;;;;;5095028;28;20048;-62
2023/05/06 09:04:40;;;;;;;9.77;3.70;;;16.70;99.90;;;;;;5094995;28;20040;-60
2023/05/06 09:07:07;;;;;;;9.82;4.32;;;16.70;99.90;;;;;;5094590;28;20047;-62
2023/05/06 09:09:34;;;;;;;9.48;3.83;;;16.70;99.90;;;;;;5094736;28;20037;-61
2023/05/06 09:12:01;;;;;;;11.40;3.92;;;16.90;99.90;;;;;;5088117;28;20615;-62
2023/05/06 09:14:27;;;;;;;9.27;3.17;;;16.90;99.90;;;;;;5088407;28;20040;-62
2023/05/06 09:16:54;;;;;;;10.38;3.20;;;17.10;99.90;;;;;;5087711;28;20048;-61
2023/05/06 09:19:22;;;;;;;10.95;3.50;;;17.10;99.90;;;;;;5069846;28;20372;-61
2023/05/06 09:21:49;;;;;;;10.93;2.90;;;17.10;99.90;;;;;;5076557;28;20040;-61
2023/05/06 09:24:16;;;;;;;10.02;3.40;;;17.10;99.90;;;;;;5087554;28;20046;-61
2023/05/06 09:26:43;;;;;;;8.65;2.83;;;17.00;99.90;;;;;;5093782;28;20040;-62
2023/05/06 09:29:09;;;;;;;7.72;3.15;;;17.00;99.90;;;;;;5095612;28;20051;-62
2023/05/06 09:31:36;;;;;;;7.45;2.60;;;17.00;99.90;;;;;;5112684;28;20043;-61
2023/05/06 09:34:03;;;;;;;8.52;2.50;;;17.10;99.90;;;;;;5114167;28;20086;-62
2023/05/06 09:36:30;;;;;;;9.15;2.40;;;17.10;99.90;;;;;;5113777;28;20115;-61
2023/05/06 09:38:57;;;;;;;9.48;2.42;;;17.10;99.90;;;;;;5095566;28;20048;-63
2023/05/06 09:41:24;;;;;;;14.45;2.70;;;17.00;99.90;;;;;;5112743;28;20047;-62
2023/05/06 09:43:51;;;;;;;7.28;2.17;;;17.00;99.90;;;;;;5113902;28;20044;-62
2023/05/06 09:46:18;;;;;;;12.68;2.35;;;17.00;99.90;;;;;;5113836;28;20036;-62
2023/05/06 09:48:45;;;;;;;16.95;9.40;;;16.90;99.90;;;;;;5095487;28;20046;-61
2023/05/06 09:51:12;;;;;;;23.42;13.32;;;16.80;99.90;;;;;;5113585;28;20042;-63
2023/05/06 09:53:39;;;;;;;10.23;3.10;;;16.80;99.90;;;;;;5113843;28;20428;-62
2023/05/06 09:56:06;;;;;;;6.28;2.10;;;16.70;99.90;;;;;;5100183;28;20044;-62
2023/05/06 09:58:32;;;;;;;6.90;2.67;;;16.70;99.90;;;;;;5094191;28;20054;-63
2023/05/06 10:01:00;;;;;;;9.02;2.53;;;16.70;99.90;;;;;;5093871;28;20046;-63
2023/05/06 10:03:26;;;;;;;5.53;1.83;;;16.80;99.90;;;;;;5075902;28;20122;-63
2023/05/06 10:05:56;;;;;;;9.35;2.47;;;16.70;99.90;;;;;;5094218;28;20048;-62
2023/05/06 10:08:23;;;;;;;7.03;2.30;;;16.70;99.90;;;;;;5093737;28;20063;-62
2023/05/06 10:10:50;;;;;;;9.95;2.03;;;16.60;99.90;;;;;;5093808;28;20046;-62
2023/05/06 10:13:16;;;;;;;10.27;2.25;;;16.60;99.90;;;;;;5075699;28;20058;-61
2023/05/06 10:15:43;;;;;;;7.20;2.05;;;16.60;99.90;;;;;;5093957;28;20036;-62
2023/05/06 10:18:10;;;;;;;11.32;2.20;;;16.60;99.90;;;;;;5075562;28;20041;-61
2023/05/06 10:20:37;;;;;;;7.88;1.73;;;16.50;99.90;;;;;;5075761;28;20044;-62
2023/05/06 10:23:04;;;;;;;7.28;1.60;;;16.50;99.90;;;;;;5093594;28;20040;-62
2023/05/06 10:25:31;;;;;;;7.68;1.80;;;16.40;99.90;;;;;;5092521;28;20368;-62
2023/05/06 10:27:57;;;;;;;5.18;1.65;;;16.40;99.90;;;;;;5093931;28;20471;-62
2023/05/06 10:30:25;;;;;;;5.07;1.33;;;16.40;99.90;;;;;;5096179;28;20043;-61
2023/05/06 10:32:51;;;;;;;4.93;1.80;;;16.40;99.90;;;;;;5079775;28;20051;-62
2023/05/06 10:35:18;;;;;;;5.68;1.60;;;16.40;99.90;;;;;;5097899;28;20428;-62
2023/05/06 10:37:45;;;;;;;4.72;1.60;;;16.40;99.90;;;;;;5097790;28;20040;-61
2023/05/06 10:40:12;;;;;;;6.63;1.73;;;16.30;99.90;;;;;;5097493;28;20055;-62
2023/05/06 10:42:39;;;;;;;7.25;1.65;;;16.30;99.90;;;;;;5097695;28;20047;-61
2023/05/06 10:45:07;;;;;;;7.38;1.80;;;16.30;99.90;;;;;;5097513;28;20064;-61
2023/05/06 10:47:37;;;;;;;5.50;1.70;;;16.30;99.90;;;;;;5079417;28;20564;-61
2023/05/06 10:50:04;;;;;;;8.27;2.10;;;16.30;99.90;;;;;;5097451;28;20044;-62
2023/05/06 10:52:32;;;;;;;6.63;1.60;;;16.40;99.90;;;;;;5079844;28;20036;-62
2023/05/06 10:54:59;;;;;;;5.63;1.50;;;16.40;99.90;;;;;;5097487;28;20043;-62
2023/05/06 10:57:26;;;;;;;8.38;2.00;;;16.50;99.90;;;;;;5079548;28;20044;-59
2023/05/06 10:59:53;;;;;;;8.48;2.10;;;16.70;99.90;;;;;;5097442;28;20040;-62
2023/05/06 11:02:20;;;;;;;6.45;2.15;;;16.70;99.90;;;;;;5109529;28;20036;-62
2023/05/06 11:04:47;;;;;;;7.38;1.70;;;16.80;99.90;;;;;;5117258;28;20052;-62
2023/05/06 11:07:14;;;;;;;7.97;1.83;;;16.80;99.90;;;;;;5116920;28;20039;-61
2023/05/06 11:09:41;;;;;;;7.45;1.90;;;16.80;99.90;;;;;;5117148;28;20127;-62
2023/05/06 11:12:07;;;;;;;6.68;2.30;;;16.80;99.90;;;;;;5116619;28;20507;-60
2023/05/06 11:14:36;;;;;;;7.90;2.75;;;16.80;99.90;;;;;;5098703;28;20040;-61
2023/05/06 11:17:03;;;;;;;5.70;1.67;;;16.70;99.90;;;;;;5116843;28;20385;-61
2023/05/06 11:19:30;;;;;;;5.15;1.80;;;16.70;99.90;;;;;;5116563;28;20119;-62
2023/05/06 11:21:57;;;;;;;5.95;1.52;;;16.70;99.90;;;;;;5109831;28;20032;-62
2023/05/06 11:24:24;;;;;;;7.53;1.77;;;16.80;99.90;;;;;;5096933;28;20418;-62
2023/05/06 11:26:50;;;;;;;5.75;2.03;;;16.80;99.90;;;;;;5097208;28;20110;-61
2023/05/06 11:29:17;;;;;;;8.98;1.80;;;16.80;99.90;;;;;;5095624;28;20071;-61
2023/05/06 11:31:44;;;;;;;8.95;2.15;;;16.80;99.90;;;;;;5096629;28;20079;-62
2023/05/06 11:34:12;;;;;;;7.55;1.80;;;16.80;99.90;;;;;;5078756;28;20054;-62
2023/05/06 11:36:39;;;;;;;7.20;1.65;;;16.80;99.90;;;;;;5096762;28;20536;-62
2023/05/06 11:39:09;;;;;;;10.75;1.90;;;16.90;99.90;;;;;;5096567;28;20040;-62
2023/05/06 11:41:35;;;;;;;23.35;2.95;;;16.80;99.90;;;;;;5096497;28;20047;-62
2023/05/06 11:44:02;;;;;;;8.88;1.88;;;16.80;99.90;;;;;;5096503;28;20451;-62
2023/05/06 11:46:29;;;;;;;12.02;2.47;;;16.90;99.90;;;;;;5096806;28;20105;-61
2023/05/06 11:48:56;;;;;;;5.60;1.48;;;16.90;99.90;;;;;;5096411;28;20384;-62
2023/05/06 11:51:23;;;;;;;6.32;1.80;;;16.80;99.90;;;;;;5096483;28;20042;-62
2023/05/06 11:53:49;;;;;;;5.97;1.70;;;16.90;99.90;;;;;;5096184;28;20090;-61
2023/05/06 11:56:16;;;;;;;5.57;1.52;;;17.00;99.90;;;;;;5096655;28;20040;-62
2023/05/06 11:58:43;;;;;;;6.35;1.70;;;17.00;99.90;;;;;;5078412;28;20093;-61
2023/05/06 12:01:10;;;;;;;6.13;1.60;;;17.00;99.90;;;;;;5077978;28;20380;-60
2023/05/06 12:03:36;;;;;;;7.03;1.30;;;17.10;99.90;;;;;;5078086;28;20071;-61
2023/05/06 12:06:03;;;;;;;4.88;1.30;;;17.10;99.90;;;;;;5096094;28;20047;-60
2023/05/06 12:08:30;;;;;;;4.32;1.60;;;17.20;99.90;;;;;;5096248;28;20064;-61
2023/05/06 12:10:57;;;;;;;5.57;1.23;;;17.30;99.90;;;;;;5077775;28;20444;-59
2023/05/06 12:13:24;;;;;;;4.53;1.20;;;17.20;99.90;;;;;;5095866;28;20123;-60
2023/05/06 12:15:51;;;;;;;4.88;1.30;;;17.10;99.90;;;;;;5096530;28;20382;-60
2023/05/06 12:18:17;;;;;;;6.03;1.63;;;17.20;99.90;;;;;;5095830;28;20063;-62
2023/05/06 12:20:44;;;;;;;5.72;1.50;;;17.20;99.90;;;;;;5095765;28;20044;-62
2023/05/06 12:23:11;;;;;;;3.72;1.40;;;17.20;99.90;;;;;;5095903;28;20089;-61
2023/05/06 12:25:38;;;;;;;4.32;1.15;;;17.20;99.90;;;;;;5095914;28;20051;-61
2023/05/06 12:28:04;;;;;;;4.88;1.40;;;17.30;99.90;;;;;;5095698;28;20135;-61
2023/05/06 12:30:31;;;;;;;4.80;1.58;;;17.30;99.90;;;;;;5061016;28;20097;-61
2023/05/06 12:32:58;;;;;;;4.32;1.27;;;17.40;99.90;;;;;;5095705;28;20440;-60
2023/05/06 12:35:25;;;;;;;4.45;1.30;;;17.40;99.90;;;;;;5095642;28;20447;-60
2023/05/06 12:37:52;;;;;;;5.57;1.45;;;17.50;99.90;;;;;;5095430;28;20105;-63